createdAt,value
2019-04-06T01:15:47.409Z,217.33
2019-04-06T01:20:53.391Z,164.23
2019-04-06T01:26:06.961Z,141.70
2019-04-06T01:31:09.530Z,134.03
2019-04-06T01:36:15.501Z,126.50
2019-04-06T01:41:21.779Z,112.70
2019-04-06T01:46:28.507Z,109.83
2019-04-06T01:51:35.764Z,202.68
2019-04-06T01:56:43.867Z,543.30
2019-04-06T02:02:04.204Z,682.10
2019-04-06T02:07:10.386Z,913.97
2019-04-06T02:12:17.195Z,1139.77
2019-04-06T02:17:23.752Z,1302.73
2019-04-06T02:22:29.824Z,1159.67
2019-04-06T02:32:59.570Z,1571.77
2019-04-06T02:38:09.962Z,1351.83
2019-04-06T02:43:17.794Z,1290.55
2019-04-06T02:53:30.719Z,878.87
2019-04-06T03:13:55.936Z,364.23
2019-04-06T03:19:02.138Z,253.32
2019-04-06T03:44:34.900Z,87.97
2019-04-06T04:05:00.877Z,76.67
2019-04-06T04:10:07.057Z,77.85
2019-04-06T04:20:19.494Z,67.15
2019-04-06T04:40:45.851Z,72.30
2019-04-06T04:45:51.990Z,66.80
2019-04-06T04:56:05.798Z,64.27
2019-04-06T05:06:20.815Z,63.45
2019-04-06T05:11:26.974Z,60.20
2019-04-06T05:31:52.828Z,65.28
2019-04-06T05:36:58.974Z,59.00
2019-04-06T05:57:23.986Z,60.67
2019-04-06T06:38:14.322Z,42.65
2019-04-06T06:48:27.545Z,47.13
2019-04-06T07:03:47.498Z,54.70
2019-04-06T07:24:24.720Z,45.40
2019-04-06T07:29:30.580Z,43.13
2019-04-06T07:34:36.511Z,43.80
2019-04-06T07:39:42.959Z,44.10
2019-04-06T07:49:54.996Z,44.63
2019-04-06T07:55:01.144Z,47.50
2019-04-06T08:00:07.555Z,45.53
2019-04-06T08:05:13.569Z,43.13
2019-04-06T08:10:19.731Z,44.60
2019-04-06T08:15:25.595Z,40.03
2019-04-06T08:20:31.666Z,40.23
2019-04-06T08:25:37.555Z,37.63
2019-04-06T08:30:46.160Z,38.57
2019-04-06T08:35:51.727Z,41.77
2019-04-06T08:40:57.708Z,40.70
2019-04-06T08:46:03.882Z,39.47
2019-04-06T09:01:22.158Z,38.10
2019-04-06T09:06:28.092Z,37.87
2019-04-06T09:16:40.595Z,36.70
2019-04-06T09:21:46.608Z,35.73
2019-04-06T09:26:52.621Z,39.20
2019-04-06T09:31:58.616Z,35.73
2019-04-06T09:37:04.418Z,34.77
2019-04-06T09:42:10.482Z,33.20
2019-04-06T09:47:19.130Z,35.77
2019-04-06T09:57:52.023Z,35.93
2019-04-06T10:03:11.843Z,32.70
2019-04-06T10:08:25.812Z,32.03
2019-04-06T10:13:33.405Z,34.40
2019-04-06T10:18:41.039Z,31.67
2019-04-06T10:24:05.621Z,33.03
2019-04-06T10:29:19.131Z,32.83
2019-04-06T10:34:24.749Z,33.53
2019-04-06T10:39:44.863Z,33.37
2019-04-06T10:50:08.025Z,38.45
2019-04-06T10:55:22.782Z,34.70
2019-04-06T11:00:32.912Z,32.13
2019-04-06T11:05:43.435Z,33.50
2019-04-06T11:10:52.053Z,37.97
2019-04-06T11:16:05.754Z,35.80
2019-04-06T11:21:17.450Z,35.43
2019-04-06T11:26:28.066Z,34.83
2019-04-06T11:32:27.482Z,32.37
2019-04-06T11:37:53.494Z,37.97
2019-04-06T11:43:17.366Z,32.67
2019-04-06T11:48:41.028Z,35.23
2019-04-06T11:53:50.983Z,34.97
2019-04-06T11:59:07.721Z,33.33
2019-04-06T12:04:18.067Z,32.57
2019-04-06T12:14:39.027Z,34.43
2019-04-06T12:25:22.948Z,37.53
2019-04-06T12:30:47.087Z,39.03
2019-04-06T12:41:14.374Z,34.10
2019-04-06T12:46:22.980Z,29.90
2019-04-06T12:51:39.743Z,37.23
2019-04-06T12:56:47.339Z,40.12
2019-04-06T13:01:58.987Z,40.37
2019-04-06T13:07:23.064Z,40.13
2019-04-06T13:12:34.755Z,38.63
2019-04-06T13:17:46.009Z,40.38
2019-04-06T13:22:56.615Z,45.13
2019-04-06T13:28:14.406Z,258.10
2019-04-06T13:33:22.135Z,329.57
2019-04-06T13:38:42.291Z,173.30
2019-04-06T13:43:54.521Z,405.57
2019-04-06T13:49:08.188Z,288.97
2019-04-06T13:54:16.873Z,202.57
2019-04-06T13:59:41.142Z,160.20
2019-04-06T14:05:05.261Z,106.00
2019-04-06T14:10:13.228Z,190.53
2019-04-06T14:15:21.365Z,295.20
2019-04-06T14:20:38.228Z,312.30
2019-04-06T14:25:50.084Z,349.40
2019-04-06T14:31:00.836Z,289.20
2019-04-06T14:41:39.066Z,317.40
2019-04-06T14:51:59.741Z,164.62
2019-04-06T14:57:23.854Z,187.90
2019-04-06T15:02:40.573Z,193.55
2019-04-06T15:18:19.662Z,261.17
2019-04-06T15:23:25.425Z,269.20
2019-04-06T15:28:35.299Z,291.50
2019-04-06T15:33:49.542Z,436.80
2019-04-06T15:39:03.366Z,486.40
2019-04-06T15:44:11.206Z,365.27
2019-04-06T15:49:29.474Z,320.75
2019-04-06T15:54:38.086Z,309.10
2019-04-06T16:05:06.371Z,405.25
2019-04-06T16:10:17.795Z,465.43
2019-04-06T16:15:35.860Z,537.43
2019-04-06T16:20:44.109Z,545.17
2019-04-06T16:25:52.123Z,576.20
2019-04-06T16:36:09.702Z,660.50
2019-04-06T16:46:35.802Z,724.47
2019-04-06T16:51:43.542Z,850.27
2019-04-06T16:56:56.395Z,826.47
2019-04-06T17:02:23.595Z,1028.87
2019-04-06T17:07:32.321Z,942.27
2019-04-06T17:12:38.232Z,833.60
2019-04-06T17:17:46.198Z,945.50
2019-04-06T17:34:17.578Z,1082.93
2019-04-06T17:39:41.789Z,1072.57
2019-04-06T17:44:52.386Z,978.00
2019-04-06T17:50:19.851Z,989.80
2019-04-06T17:55:43.773Z,918.52
2019-04-06T18:01:03.869Z,1500.20
2019-04-06T18:06:23.481Z,1380.43
2019-04-06T18:11:31.781Z,1341.53
2019-04-06T18:16:38.556Z,1231.30
2019-04-06T18:21:44.735Z,1148.77
2019-04-06T18:26:51.926Z,1072.60
2019-04-06T18:37:23.497Z,1131.13
2019-04-06T18:42:30.830Z,1130.50
2019-04-06T18:47:36.857Z,1059.73
2019-04-06T18:52:43.269Z,899.42
2019-04-06T19:03:12.061Z,808.62
2019-04-06T19:13:16.751Z,652.30
2019-04-06T19:18:23.938Z,615.17
2019-04-06T19:43:55.897Z,800.40
2019-04-06T23:36:19.186Z,852.58
2019-04-06T23:41:25.450Z,820.00
2019-04-06T23:46:32.758Z,974.67
2019-04-06T23:51:39.916Z,827.40
2019-04-06T23:56:46.692Z,838.03
